Time;durP1;ratioP1;P1;durP2;ratioP2;P2;SDS_P1;SDS_P2;PMS_P1;PMS_P2;Temp;Humidity;BMP_temperature;BMP_pressure;BME280_temperature;BME280_humidity;BME280_pressure;Samples;Min_cycle;Max_cycle;Signal;HPM_P1;HPM_P2
2024/04/09 00:01:18;;;;;;;1999.90;999.90;;;;;;;15.08;100.00;100235.09;11442521;26;19998;-69
2024/04/09 00:06:21;;;;;;;1999.90;999.90;;;;;;;15.20;100.00;100244.63;11442248;26;20009;-68
2024/04/09 00:11:24;;;;;;;1999.90;999.90;;;;;;;15.08;100.00;100235.09;11442058;26;20009;-68
2024/04/09 00:16:27;;;;;;;1999.90;999.90;;;;;;;15.01;100.00;100238.28;11441822;26;19997;-68
2024/04/09 00:21:32;;;;;;;1999.90;999.90;;;;;;;15.08;100.00;100212.22;11441694;26;20069;-68
2024/04/09 00:26:35;;;;;;;1999.90;999.90;;;;;;;14.98;100.00;100220.06;11441823;26;20012;-69
2024/04/09 00:31:38;;;;;;;1999.90;999.90;;;;;;;14.94;100.00;100252.91;11441310;26;20008;-68
2024/04/09 00:36:40;;;;;;;1999.90;999.90;;;;;;;14.89;100.00;100281.47;11441314;26;19998;-68
2024/04/09 00:41:43;;;;;;;1999.90;999.90;;;;;;;14.92;100.00;100254.84;11441359;26;20006;-68
2024/04/09 00:46:49;;;;;;;1999.90;999.90;;;;;;;14.79;100.00;100255.06;11440648;26;20011;-68
2024/04/09 00:51:52;;;;;;;1999.90;999.90;;;;;;;15.02;100.00;100229.38;11409441;26;20001;-68
2024/04/09 00:56:56;;;;;;;1999.90;999.90;;;;;;;14.80;100.00;100216.38;11408460;26;20013;-68
2024/04/09 01:02:00;;;;;;;1999.90;999.90;;;;;;;15.13;100.00;100222.34;11439743;26;20013;-68
2024/04/09 01:07:02;;;;;;;1999.90;999.90;;;;;;;14.74;100.00;100227.41;11440058;26;20002;-68
2024/04/09 01:12:05;;;;;;;1999.90;999.90;;;;;;;14.79;100.00;100225.22;11407688;26;20046;-68
2024/04/09 01:17:08;;;;;;;1999.90;999.90;;;;;;;14.67;100.00;100224.47;11440202;26;19997;-68
2024/04/09 01:22:11;;;;;;;1999.90;999.90;;;;;;;14.76;100.00;100236.00;11439482;26;19997;-68
2024/04/09 01:27:16;;;;;;;1999.90;999.90;;;;;;;14.82;100.00;100264.50;11407349;26;19997;-68
2024/04/09 01:32:20;;;;;;;1999.90;999.90;;;;;;;14.92;100.00;100261.94;11408622;26;19997;-68
2024/04/09 01:37:24;;;;;;;1999.90;999.90;;;;;;;14.85;100.00;100287.97;11439512;26;20042;-68
2024/04/09 01:42:27;;;;;;;1999.90;999.90;;;;;;;14.55;100.00;100292.13;11439186;26;19997;-68
2024/04/09 01:47:30;;;;;;;1999.90;999.90;;;;;;;14.46;100.00;100303.44;11438903;26;20001;-68
2024/04/09 01:52:34;;;;;;;1999.90;999.90;;;;;;;14.34;100.00;100310.53;11406370;26;20529;-68
2024/04/09 01:57:37;;;;;;;1999.90;999.90;;;;;;;14.24;100.00;100292.00;11438464;26;20013;-68
2024/04/09 02:02:44;;;;;;;1999.90;999.90;;;;;;;14.27;100.00;100265.44;11406368;26;20465;-68
2024/04/09 02:07:47;;;;;;;1999.90;999.90;;;;;;;14.30;100.00;100238.00;11406785;26;19997;-67
2024/04/09 02:12:50;;;;;;;1999.90;999.90;;;;;;;14.53;100.00;100238.75;11437112;26;20038;-68
2024/04/09 02:17:53;;;;;;;1999.90;999.90;;;;;;;14.36;100.00;100237.50;11405868;26;20005;-68
2024/04/09 02:22:55;;;;;;;1999.90;999.90;;;;;;;14.29;100.00;100252.16;11438517;26;20336;-68
2024/04/09 02:27:58;;;;;;;1999.90;999.90;;;;;;;14.18;100.00;100236.38;11437858;26;20011;-67
2024/04/09 02:33:00;;;;;;;1999.90;999.90;;;;;;;14.06;100.00;100270.63;11438118;26;20436;-68
2024/04/09 02:38:04;;;;;;;1999.90;999.90;;;;;;;14.21;100.00;100289.63;11437491;26;20377;-67
2024/04/09 02:43:08;;;;;;;1999.90;999.90;;;;;;;14.21;100.00;100320.38;11437366;26;20001;-68
2024/04/09 02:48:11;;;;;;;1999.90;999.90;;;;;;;14.36;100.00;100324.41;11437763;26;20440;-68
2024/04/09 02:53:14;;;;;;;1999.90;999.90;;;;;;;14.45;100.00;100318.38;11437105;26;20001;-67
2024/04/09 02:58:17;;;;;;;1999.90;999.90;;;;;;;14.33;100.00;100313.31;11437064;26;20457;-67
2024/04/09 03:03:19;;;;;;;1999.90;999.90;;;;;;;14.31;100.00;100342.38;11436652;26;19998;-67
2024/04/09 03:08:22;;;;;;;1999.90;999.90;;;;;;;14.68;100.00;100337.63;11436559;26;20005;-68
2024/04/09 03:13:24;;;;;;;1999.90;999.90;;;;;;;14.44;100.00;100347.47;11436626;26;20012;-68
2024/04/09 03:18:27;;;;;;;1999.90;999.90;;;;;;;14.32;100.00;100362.47;11403862;26;20013;-67
2024/04/09 03:23:30;;;;;;;1999.90;999.90;;;;;;;14.25;100.00;100362.13;11368874;21;20021;-66
2024/04/09 03:28:32;;;;;;;1999.90;999.90;;;;;;;14.39;100.00;100342.63;11284394;26;20013;-66
2024/04/09 03:33:35;;;;;;;1999.90;999.90;;;;;;;14.30;100.00;100323.09;11284075;26;20010;-66
2024/04/09 03:38:38;;;;;;;1999.90;999.90;;;;;;;14.32;100.00;100328.25;11284017;26;20007;-66
2024/04/09 03:43:40;;;;;;;1999.90;999.90;;;;;;;14.13;100.00;100321.00;11283684;26;20017;-66
2024/04/09 03:48:45;;;;;;;1999.90;999.90;;;;;;;14.02;100.00;100331.53;11283392;26;19999;-66
2024/04/09 03:53:48;;;;;;;1999.90;999.90;;;;;;;14.47;100.00;100350.72;11252649;26;20066;-66
2024/04/09 03:58:51;;;;;;;1999.90;999.90;;;;;;;14.16;100.00;100364.69;11251978;26;20335;-67
2024/04/09 04:03:53;;;;;;;1999.90;999.90;;;;;;;14.16;100.00;100377.84;11282987;26;19999;-67
2024/04/09 04:08:56;;;;;;;1999.90;999.90;;;;;;;14.34;100.00;100375.53;11252007;26;19998;-67
2024/04/09 04:13:59;;;;;;;1999.90;999.90;;;;;;;14.30;100.00;100388.09;11283043;26;20334;-67
2024/04/09 04:19:01;;;;;;;1999.90;999.90;;;;;;;14.40;100.00;100404.84;11282730;26;20450;-66
2024/04/09 04:24:04;;;;;;;1999.90;999.90;;;;;;;14.33;100.00;100429.16;11282480;26;19999;-67
2024/04/09 04:29:10;;;;;;;1999.90;999.90;;;;;;;14.31;100.00;100448.53;11282172;26;20075;-67
2024/04/09 04:34:12;;;;;;;1999.90;999.90;;;;;;;14.30;100.00;100465.28;11282066;26;20374;-67
2024/04/09 04:39:15;;;;;;;1999.90;999.90;;;;;;;14.44;100.00;100466.88;11258223;26;20005;-67
2024/04/09 04:44:17;;;;;;;1999.90;999.90;;;;;;;14.35;100.00;100472.84;11289582;26;20003;-67
2024/04/09 04:49:20;;;;;;;1999.90;999.90;;;;;;;14.09;100.00;100491.50;11289186;26;20345;-67
2024/04/09 04:54:23;;;;;;;1999.90;999.90;;;;;;;14.06;100.00;100489.09;11289308;26;20014;-66
2024/04/09 04:59:26;;;;;;;1999.90;999.90;;;;;;;14.04;100.00;100491.03;11257602;26;20009;-66
2024/04/09 05:04:28;;;;;;;1999.90;999.90;;;;;;;14.09;100.00;100491.50;11289047;26;20010;-66
2024/04/09 05:09:32;;;;;;;1999.90;999.90;;;;;;;13.93;100.00;100486.56;11288717;26;20067;-66
2024/04/09 05:14:35;;;;;;;1999.90;999.90;;;;;;;13.86;100.00;100492.44;11288616;26;20333;-66
2024/04/09 05:19:37;;;;;;;1999.90;999.90;;;;;;;13.48;100.00;100494.38;11257571;26;19999;-66
2024/04/09 05:24:43;;;;;;;1999.90;999.90;;;;;;;13.65;100.00;100508.03;11257195;26;19999;-66
2024/04/09 05:29:48;;;;;;;1999.90;999.90;;;;;;;13.83;100.00;100495.28;11287993;26;20003;-66
2024/04/09 05:34:51;;;;;;;1999.90;999.90;;;;;;;13.70;100.00;100508.53;11288082;26;19999;-69
2024/04/09 05:39:53;;;;;;;1999.90;999.90;;;;;;;13.82;100.00;100505.00;11256569;26;20003;-69
2024/04/09 05:44:56;;;;;;;1999.90;999.90;;;;;;;13.62;100.00;100501.22;11287776;26;19999;-69
2024/04/09 05:49:58;;;;;;;1999.90;999.90;;;;;;;13.66;100.00;100507.09;11287069;26;20068;-69
2024/04/09 05:55:01;;;;;;;1999.90;999.90;;;;;;;13.55;100.00;100508.75;11287293;26;19999;-69
2024/04/09 06:00:08;;;;;;;1999.90;999.90;;;;;;;13.60;100.00;100516.28;11287274;26;19999;-69
2024/04/09 06:05:11;;;;;;;1999.90;999.90;;;;;;;13.48;100.00;100536.47;11255777;26;20014;-69
2024/04/09 06:10:15;;;;;;;1999.90;999.90;;;;;;;13.52;100.00;100550.22;11226182;26;19999;-69
2024/04/09 06:15:18;;;;;;;1999.90;999.90;;;;;;;13.60;100.00;100547.84;11286990;26;20013;-69
2024/04/09 06:20:21;;;;;;;1999.90;999.90;;;;;;;13.48;100.00;100530.34;11286664;26;20450;-69
2024/04/09 06:25:23;;;;;;;1999.90;999.90;;;;;;;13.54;100.00;100537.78;11286652;26;20013;-69
2024/04/09 06:30:26;;;;;;;1999.90;999.90;;;;;;;13.17;100.00;100535.19;11254632;26;20030;-69
2024/04/09 06:35:29;;;;;;;1999.90;999.90;;;;;;;13.25;100.00;100529.38;11254867;26;19998;-69
2024/04/09 06:40:32;;;;;;;1999.90;999.90;;;;;;;13.43;100.00;100535.97;11286006;26;20003;-69
2024/04/09 06:45:34;;;;;;;1999.90;999.90;;;;;;;13.28;100.00;100556.28;11255164;26;20013;-69
2024/04/09 06:50:37;;;;;;;1999.90;999.90;;;;;;;13.08;100.00;100568.22;11285559;26;19998;-69
2024/04/09 06:55:39;;;;;;;1999.90;999.90;;;;;;;12.85;97.07;100590.88;11253936;26;19999;-68
2024/04/09 07:00:42;;;;;;;1999.90;999.90;;;;;;;13.10;96.96;100597.03;11284913;26;20007;-67
2024/04/09 07:05:44;;;;;;;1999.90;999.90;;;;;;;12.47;91.49;100583.88;11253749;26;19999;-66
2024/04/09 07:10:55;;;;;;;1999.90;999.90;;;;;;;12.38;90.59;100592.38;11254450;26;20040;-66
2024/04/09 07:15:58;;;;;;;1999.90;999.90;;;;;;;12.51;89.76;100601.09;11284846;26;20010;-66
2024/04/09 07:21:01;;;;;;;1999.90;999.90;;;;;;;12.65;89.49;100613.28;11285065;26;20007;-66
2024/04/09 07:26:04;;;;;;;1999.90;999.90;;;;;;;12.75;90.61;100613.50;11285172;26;20067;-66
2024/04/09 07:31:08;;;;;;;1999.90;999.90;;;;;;;12.60;89.00;100612.75;11284556;26;20346;-66
2024/04/09 07:36:10;;;;;;;1999.90;999.90;;;;;;;12.72;90.33;100609.28;11284927;26;20068;-66
2024/04/09 07:41:13;;;;;;;1999.90;999.90;;;;;;;12.43;86.16;100617.38;11252442;26;20407;-67
2024/04/09 07:46:16;;;;;;;1999.90;999.90;;;;;;;12.62;86.31;100619.59;11252510;26;20503;-66
2024/04/09 07:51:18;;;;;;;1999.90;999.90;;;;;;;13.02;85.95;100632.56;11283641;26;20013;-68
2024/04/09 07:56:21;;;;;;;1999.90;999.90;;;;;;;12.96;86.18;100626.91;11252287;26;20035;-67
2024/04/09 08:01:24;;;;;;;1999.90;999.90;;;;;;;12.99;86.32;100643.31;11252128;26;20310;-68
2024/04/09 08:06:28;;;;;;;1999.90;999.90;;;;;;;13.13;87.97;100660.75;11251818;26;20518;-68
2024/04/09 08:11:31;;;;;;;1999.90;999.90;;;;;;;12.90;88.29;100649.19;11287845;26;19999;-68
2024/04/09 08:16:34;;;;;;;1999.90;999.90;;;;;;;12.97;88.73;100650.44;11259066;26;20009;-68
2024/04/09 08:21:36;;;;;;;1999.90;999.90;;;;;;;13.33;85.58;100672.50;11290394;26;20407;-68
2024/04/09 08:26:41;;;;;;;1999.90;999.90;;;;;;;13.30;88.00;100696.34;11289545;26;20009;-68
2024/04/09 08:31:44;;;;;;;1999.90;999.90;;;;;;;12.75;82.44;100702.81;11289763;26;19999;-68
2024/04/09 08:36:47;;;;;;;1999.90;999.90;;;;;;;13.45;79.21;100718.13;11289596;26;20071;-68
2024/04/09 08:41:50;;;;;;;1999.90;999.90;;;;;;;13.17;75.39;100720.03;11289450;26;20330;-68
2024/04/09 08:46:54;;;;;;;1999.90;999.90;;;;;;;13.74;77.96;100721.31;11257806;26;19999;-68
2024/04/09 08:51:57;;;;;;;1999.90;999.90;;;;;;;13.78;76.05;100735.06;11197191;26;20079;-68
2024/04/09 08:57:00;;;;;;;1999.90;999.90;;;;;;;13.95;76.42;100739.13;11258507;26;20445;-68
2024/04/09 09:02:12;;;;;;;1999.90;999.90;;;;;;;13.33;71.53;100740.00;11289267;26;19999;-68
2024/04/09 09:07:22;;;;;;;1999.90;999.90;;;;;;;14.04;72.47;100756.91;11289074;26;19999;-68
2024/04/09 09:12:25;;;;;;;1999.90;999.90;;;;;;;14.05;69.47;100747.19;11257896;26;20446;-69
2024/04/09 09:17:31;;;;;;;1999.90;999.90;;;;;;;14.63;70.88;100766.63;11257061;26;19999;-68
2024/04/09 09:22:36;;;;;;;1999.90;999.90;;;;;;;14.43;67.09;100751.44;11256671;26;20341;-68
2024/04/09 09:27:41;;;;;;;1999.90;999.90;;;;;;;15.21;65.88;100748.19;11257370;26;20345;-67
2024/04/09 09:32:48;;;;;;;1999.90;999.90;;;;;;;15.86;64.50;100744.91;11256782;26;20383;-69
2024/04/09 09:37:54;;;;;;;1999.90;999.90;;;;;;;14.98;63.58;100751.75;11287761;26;20491;-70
2024/04/09 09:42:56;;;;;;;1999.90;999.90;;;;;;;16.87;66.21;100770.91;11257248;26;20014;-69
2024/04/09 09:47:59;;;;;;;1999.90;999.90;;;;;;;14.27;67.32;100791.22;11256145;26;20461;-69
2024/04/09 09:53:03;;;;;;;1999.90;999.90;;;;;;;13.96;67.32;100790.81;11255931;26;20075;-68
2024/04/09 09:58:10;;;;;;;1999.90;999.90;;;;;;;13.84;66.50;100810.13;11256033;26;20014;-69
2024/04/09 10:03:13;;;;;;;1999.90;999.90;;;;;;;14.57;64.51;100809.19;11255742;26;20128;-69
2024/04/09 10:08:26;;;;;;;1999.90;999.90;;;;;;;15.22;62.37;100807.03;11287044;26;19998;-69
2024/04/09 10:13:28;;;;;;;1999.90;999.90;;;;;;;14.50;61.56;100803.53;11286877;26;20003;-69
2024/04/09 10:18:37;;;;;;;1999.90;999.90;;;;;;;14.52;63.17;100819.25;11286673;26;20010;-70
2024/04/09 10:23:41;;;;;;;1999.90;999.90;;;;;;;14.73;65.97;100810.75;11286542;26;20075;-69
2024/04/09 10:28:44;;;;;;;1999.90;999.90;;;;;;;15.31;64.52;100814.22;11286351;26;20031;-69
2024/04/09 10:33:57;;;;;;;1999.90;999.90;;;;;;;16.33;65.23;100811.50;11284878;26;20002;-69
2024/04/09 10:39:00;;;;;;;1999.90;999.90;;;;;;;16.20;61.07;100816.13;11254998;26;20446;-68
2024/04/09 10:44:04;;;;;;;1999.90;999.90;;;;;;;16.22;62.25;100822.09;11285943;26;20010;-70
2024/04/09 10:49:06;;;;;;;1999.90;999.90;;;;;;;17.15;60.82;100821.50;11285767;26;20094;-70
2024/04/09 10:54:13;;;;;;;1999.90;999.90;;;;;;;16.64;58.44;100841.56;11254690;26;20002;-70
2024/04/09 10:59:17;;;;;;;1999.90;999.90;;;;;;;16.44;57.94;100834.41;11285357;26;20482;-69
2024/04/09 11:04:19;;;;;;;1999.90;999.90;;;;;;;16.07;59.98;100845.31;11254416;26;20445;-69
2024/04/09 11:09:22;;;;;;;1999.90;999.90;;;;;;;15.59;58.32;100854.31;11285129;26;19999;-70
2024/04/09 11:14:25;;;;;;;1999.90;999.90;;;;;;;15.57;61.56;100851.78;11253606;26;20012;-69
2024/04/09 11:19:29;;;;;;;1999.90;999.90;;;;;;;15.35;60.73;100872.88;11253127;26;19999;-70
2024/04/09 11:24:32;;;;;;;1999.90;999.90;;;;;;;16.06;59.46;100876.16;11253582;26;20040;-69
2024/04/09 11:29:35;;;;;;;1999.90;999.90;;;;;;;14.88;62.02;100869.38;11253639;26;20525;-70
2024/04/09 11:34:37;;;;;;;1999.90;999.90;;;;;;;15.33;62.06;100896.72;11284430;26;20375;-68
2024/04/09 11:39:45;;;;;;;1999.90;999.90;;;;;;;15.59;62.19;100899.16;11284434;26;20009;-68
2024/04/09 11:44:58;;;;;;;1999.90;999.90;;;;;;;14.95;59.24;100897.81;11255047;26;20049;-69
2024/04/09 11:50:04;;;;;;;1999.90;999.90;;;;;;;16.27;59.37;100886.84;11259647;26;20007;-68
2024/04/09 11:55:08;;;;;;;1999.90;999.90;;;;;;;17.38;58.84;100884.84;11260746;26;20003;-69
2024/04/09 12:00:13;;;;;;;1999.90;999.90;;;;;;;16.51;55.60;100867.31;11260097;26;20009;-70
2024/04/09 12:05:16;;;;;;;1999.90;999.90;;;;;;;17.54;53.54;100871.97;11290595;26;19999;-69
2024/04/09 12:10:20;;;;;;;1999.90;999.90;;;;;;;18.94;55.57;100872.06;11290680;26;20003;-70
2024/04/09 12:15:23;;;;;;;1999.90;999.90;;;;;;;17.54;51.47;100865.84;11259137;26;20442;-69
2024/04/09 12:20:26;;;;;;;1999.90;999.90;;;;;;;17.92;52.82;100874.94;11290032;26;20076;-70
2024/04/09 12:25:28;;;;;;;1999.90;999.90;;;;;;;17.36;54.81;100897.38;11258911;26;19999;-69
2024/04/09 12:30:31;;;;;;;1999.90;999.90;;;;;;;16.57;57.98;100893.22;11289661;26;20079;-68
2024/04/09 12:35:33;;;;;;;1999.90;999.90;;;;;;;16.33;58.53;100899.53;11258401;26;20031;-69
2024/04/09 12:40:36;;;;;;;1999.90;999.90;;;;;;;16.40;57.20;100915.72;11289743;26;19999;-69
2024/04/09 12:45:38;;;;;;;1999.90;999.90;;;;;;;14.97;58.23;100911.72;11289400;26;20461;-69
2024/04/09 12:50:41;;;;;;;1999.90;999.90;;;;;;;14.81;59.06;100906.75;11289452;26;20014;-69
2024/04/09 12:55:46;;;;;;;1999.90;999.90;;;;;;;15.27;61.28;100920.94;11256624;26;20030;-69
2024/04/09 13:00:48;;;;;;;1999.90;999.90;;;;;;;15.22;59.19;100916.00;11288740;26;20007;-70
2024/04/09 13:06:09;;;;;;;1999.90;999.90;;;;;;;14.85;59.93;100910.81;11288747;26;19999;-68
2024/04/09 13:11:12;;;;;;;1999.90;999.90;;;;;;;14.71;58.92;100918.06;11257547;26;20131;-69
2024/04/09 13:16:15;;;;;;;1999.90;999.90;;;;;;;14.18;59.70;100934.09;11288608;26;20460;-70
2024/04/09 13:21:20;;;;;;;1999.90;999.90;;;;;;;14.48;59.65;100937.19;11288440;26;20003;-69
2024/04/09 13:26:23;;;;;;;1999.90;999.90;;;;;;;14.44;59.59;100942.75;11288146;26;20375;-69
2024/04/09 13:31:26;;;;;;;1999.90;999.90;;;;;;;14.19;60.08;100930.50;11256608;26;19998;-68
2024/04/09 13:36:28;;;;;;;1999.90;999.90;;;;;;;14.55;60.25;100934.09;11288045;26;20014;-68
2024/04/09 13:41:31;;;;;;;1999.90;999.90;;;;;;;14.12;61.29;100938.84;11287944;26;20009;-69
2024/04/09 13:46:33;;;;;;;1999.90;999.90;;;;;;;14.00;59.47;100928.31;11287519;26;20014;-69
2024/04/09 13:51:36;;;;;;;1999.90;999.90;;;;;;;14.14;61.76;100938.75;11287214;26;20454;-70
2024/04/09 13:56:38;;;;;;;1999.90;999.90;;;;;;;13.86;61.34;100945.06;11287186;26;20454;-69
2024/04/09 14:01:41;;;;;;;1999.90;999.90;;;;;;;13.92;64.57;100952.56;11255654;26;20010;-69
2024/04/09 14:06:44;;;;;;;1999.90;999.90;;;;;;;13.75;62.38;100930.00;11287612;26;20007;-68
2024/04/09 14:11:46;;;;;;;1999.90;999.90;;;;;;;13.78;61.79;100940.31;11255586;26;20465;-69
2024/04/09 14:16:49;;;;;;;1999.90;999.90;;;;;;;14.58;62.46;100940.00;11255641;26;20010;-68
2024/04/09 14:21:52;;;;;;;1999.90;999.90;;;;;;;15.24;58.42;100943.09;11286782;26;20069;-69
2024/04/09 14:26:54;;;;;;;1999.90;999.90;;;;;;;14.61;61.19;100942.44;11286164;26;20442;-68
2024/04/09 14:31:57;;;;;;;1999.90;999.90;;;;;;;14.97;60.64;100959.16;11254578;26;19998;-68
2024/04/09 14:36:59;;;;;;;1999.90;999.90;;;;;;;14.20;61.89;100954.09;11286279;26;19999;-68
2024/04/09 14:42:02;;;;;;;1999.90;999.90;;;;;;;15.56;60.96;100952.19;11255097;26;20010;-68
2024/04/09 14:47:04;;;;;;;1999.90;999.90;;;;;;;14.73;60.38;100961.81;11254471;26;20013;-69
2024/04/09 14:52:07;;;;;;;1999.90;999.90;;;;;;;14.60;62.61;100966.28;11225113;26;19999;-68
2024/04/09 14:57:10;;;;;;;1999.90;999.90;;;;;;;14.39;63.15;100965.97;11285564;26;19999;-69
2024/04/09 15:02:12;;;;;;;1999.90;999.90;;;;;;;14.31;64.74;100971.78;11285589;26;20035;-69
2024/04/09 15:07:15;;;;;;;1999.90;999.90;;;;;;;14.44;64.48;100971.75;11286012;26;20010;-68
2024/04/09 15:12:17;;;;;;;1999.90;999.90;;;;;;;13.99;63.06;100988.03;11285398;26;19998;-69
2024/04/09 15:17:20;;;;;;;1999.90;999.90;;;;;;;13.58;62.10;100991.66;11285407;26;20438;-68
2024/04/09 15:22:22;;;;;;;1999.90;999.90;;;;;;;13.61;64.11;101025.66;11283755;26;20453;-69
2024/04/09 15:27:25;;;;;;;1999.90;999.90;;;;;;;13.16;63.07;101046.97;11223574;26;20069;-68
2024/04/09 15:32:28;;;;;;;1999.90;999.90;;;;;;;13.14;70.71;101053.25;11253371;26;20339;-69
2024/04/09 15:37:31;;;;;;;1999.90;999.90;;;;;;;13.40;73.63;101056.88;11286710;21;20015;-68
2024/04/09 15:42:34;;;;;;;1999.90;999.90;;;;;;;13.63;71.10;101060.59;11209765;26;20014;-69
2024/04/09 15:47:36;;;;;;;1999.90;999.90;;;;;;;13.39;70.88;101065.69;11178499;26;20457;-68
2024/04/09 15:52:39;;;;;;;1999.90;999.90;;;;;;;13.06;69.43;101064.25;11209166;26;19999;-68
2024/04/09 15:57:42;;;;;;;1999.90;999.90;;;;;;;13.22;69.28;101064.13;11178315;26;20007;-68
2024/04/09 16:02:44;;;;;;;1999.90;999.90;;;;;;;13.15;69.92;101068.09;11208910;26;20000;-68
2024/04/09 16:07:48;;;;;;;1999.90;999.90;;;;;;;13.18;69.16;101078.41;11209128;26;20342;-68
2024/04/09 16:12:51;;;;;;;1999.90;999.90;;;;;;;12.63;71.81;101114.22;11178545;26;20339;-68
2024/04/09 16:17:54;;;;;;;1999.90;999.90;;;;;;;12.11;84.54;101128.69;11208643;26;19999;-66
2024/04/09 16:22:56;;;;;;;1999.90;999.90;;;;;;;11.97;91.74;101126.88;11208440;26;20371;-66
2024/04/09 16:27:59;;;;;;;1999.90;999.90;;;;;;;11.82;93.44;101135.59;11208288;26;20073;-66
2024/04/09 16:33:01;;;;;;;1999.90;999.90;;;;;;;11.67;95.43;101161.75;11181063;26;20018;-66
2024/04/09 16:38:04;;;;;;;1999.90;999.90;;;;;;;10.89;95.69;101194.81;11215329;26;19999;-66
2024/04/09 16:43:07;;;;;;;1999.90;999.90;;;;;;;11.07;100.00;101211.38;11215226;26;20081;-66
2024/04/09 16:48:09;;;;;;;1999.90;999.90;;;;;;;10.72;100.00;101214.03;11215018;26;20028;-66
2024/04/09 16:53:12;;;;;;;1999.90;999.90;;;;;;;9.95;100.00;101210.84;11214642;26;19999;-67
2024/04/09 16:58:14;;;;;;;1999.90;999.90;;;;;;;11.00;100.00;101213.47;11214794;26;20328;-66
2024/04/09 17:03:17;;;;;;;1999.90;999.90;;;;;;;10.60;100.00;101228.59;11154565;26;19999;-66
2024/04/09 17:08:20;;;;;;;1999.90;999.90;;;;;;;10.87;100.00;101231.59;11154716;26;20072;-67
2024/04/09 17:13:23;;;;;;;1999.90;999.90;;;;;;;11.21;100.00;101229.81;11183308;26;19999;-66
2024/04/09 17:18:26;;;;;;;1999.90;999.90;;;;;;;11.37;100.00;101231.63;11213918;26;20009;-66
2024/04/09 17:23:29;;;;;;;1999.90;999.90;;;;;;;11.59;99.15;101236.56;11183172;26;20451;-67
2024/04/09 17:28:33;;;;;;;1999.90;999.90;;;;;;;11.14;95.93;101252.88;11214288;26;20468;-67
2024/04/09 17:33:35;;;;;;;1999.90;999.90;;;;;;;10.94;100.00;101259.19;11182926;26;20014;-67
2024/04/09 17:38:38;;;;;;;1999.90;999.90;;;;;;;10.89;100.00;101282.16;11182452;26;20580;-67
2024/04/09 17:43:40;;;;;;;1999.90;999.90;;;;;;;10.34;100.00;101290.97;11182154;26;20076;-67
2024/04/09 17:48:43;;;;;;;1999.90;999.90;;;;;;;10.49;100.00;101305.09;11182413;26;20000;-67
2024/04/09 17:53:45;;;;;;;1999.90;999.90;;;;;;;10.43;100.00;101315.84;11213300;26;20018;-67
2024/04/09 17:58:48;;;;;;;1999.90;999.90;;;;;;;10.72;99.46;101334.50;11182201;26;20010;-66
2024/04/09 18:03:50;;;;;;;1999.90;999.90;;;;;;;10.63;99.16;101340.22;11212848;26;20000;-66
2024/04/09 18:08:53;;;;;;;1999.90;999.90;;;;;;;10.37;100.00;101355.38;11181871;26;20018;-66
2024/04/09 18:13:56;;;;;;;1999.90;999.90;;;;;;;10.36;99.68;101348.47;11181681;26;19999;-66
2024/04/09 18:18:58;;;;;;;1999.90;999.90;;;;;;;10.29;100.00;101355.75;11152496;26;20458;-66
2024/04/09 18:24:01;;;;;;;1999.90;999.90;;;;;;;10.03;97.19;101362.19;11181664;26;19999;-66
2024/04/09 18:29:04;;;;;;;1999.90;999.90;;;;;;;10.11;96.67;101367.91;11212297;26;20000;-66
2024/04/09 18:34:07;;;;;;;1999.90;999.90;;;;;;;10.66;96.48;101376.69;11212159;26;20000;-66
2024/04/09 18:39:11;;;;;;;1999.90;999.90;;;;;;;10.37;95.01;101399.88;11181480;26;20000;-67
2024/04/09 18:44:14;;;;;;;1999.90;999.90;;;;;;;10.44;96.12;101406.56;11211868;26;20404;-66
2024/04/09 18:49:17;;;;;;;1999.90;999.90;;;;;;;10.19;93.07;101423.34;11180596;26;19999;-66
2024/04/09 18:54:19;;;;;;;1999.90;999.90;;;;;;;10.27;95.56;101438.72;11210000;26;20014;-66
2024/04/09 18:59:22;;;;;;;1999.90;999.90;;;;;;;10.32;95.87;101449.84;11180513;26;19999;-66
2024/04/09 19:04:24;;;;;;;1999.90;999.90;;;;;;;9.96;95.14;101447.09;11179848;26;19999;-66
2024/04/09 19:09:28;;;;;;;1999.90;999.90;;;;;;;9.91;96.93;101449.06;11179975;26;20508;-66
2024/04/09 19:14:30;;;;;;;1999.90;999.90;;;;;;;9.97;96.29;101464.47;11210865;26;19999;-66
2024/04/09 19:19:33;;;;;;;1999.90;999.90;;;;;;;10.04;97.16;101474.59;11179859;26;20010;-66
2024/04/09 19:24:35;;;;;;;1999.90;999.90;;;;;;;10.13;96.97;101491.66;11210630;26;20017;-66
2024/04/09 19:29:38;;;;;;;1999.90;999.90;;;;;;;10.00;97.26;101496.59;11179265;26;20000;-66
2024/04/09 19:34:40;;;;;;;1999.90;999.90;;;;;;;10.16;97.82;101498.53;11150220;26;20454;-66
2024/04/09 19:39:43;;;;;;;1999.90;999.90;;;;;;;10.06;97.34;101512.94;11179107;26;20000;-66
2024/04/09 19:44:45;;;;;;;1999.90;999.90;;;;;;;10.15;98.08;101507.28;11178815;26;20014;-66
2024/04/09 19:49:50;;;;;;;1999.90;999.90;;;;;;;10.04;96.54;101518.25;11178544;26;20338;-66
2024/04/09 19:54:53;;;;;;;1999.90;999.90;;;;;;;10.35;94.68;101525.59;11178888;26;20028;-66
2024/04/09 19:59:55;;;;;;;1999.90;999.90;;;;;;;10.47;96.71;101531.22;11209226;26;20076;-66
2024/04/09 20:04:59;;;;;;;1999.90;999.90;;;;;;;10.18;95.43;101520.25;11180082;26;20003;-66
2024/04/09 20:10:03;;;;;;;1999.90;999.90;;;;;;;9.99;95.75;101536.75;11216293;26;19995;-66
2024/04/09 20:15:06;;;;;;;1999.90;999.90;;;;;;;10.17;94.47;101545.56;11216050;26;20014;-66
2024/04/09 20:20:10;;;;;;;1999.90;999.90;;;;;;;10.14;95.54;101550.94;11185250;26;20040;-66
2024/04/09 20:25:12;;;;;;;1999.90;999.90;;;;;;;10.24;95.03;101567.09;11185719;26;20035;-66
2024/04/09 20:30:15;;;;;;;1999.90;999.90;;;;;;;9.98;93.39;101586.50;11184784;26;20354;-66
2024/04/09 20:35:18;;;;;;;1999.90;999.90;;;;;;;10.07;95.02;101593.13;11215739;26;20014;-66
2024/04/09 20:40:34;;;;;;;1999.90;999.90;;;;;;;10.13;93.38;101591.09;11215495;26;19999;-66
2024/04/09 20:45:36;;;;;;;1999.90;999.90;;;;;;;10.13;91.84;101605.94;11184267;26;20000;-66
2024/04/09 20:50:41;;;;;;;1999.90;999.90;;;;;;;10.00;92.09;101603.88;11214891;26;20035;-67
2024/04/09 20:55:43;;;;;;;1999.90;999.90;;;;;;;9.97;89.50;101627.53;11184045;26;20011;-67
2024/04/09 21:00:48;;;;;;;1999.90;999.90;;;;;;;10.15;89.51;101632.91;11183633;26;19999;-67
2024/04/09 21:05:50;;;;;;;1999.90;999.90;;;;;;;10.08;87.98;101628.84;11154965;26;20001;-67
2024/04/09 21:10:56;;;;;;;1999.90;999.90;;;;;;;10.17;90.41;101637.16;11183370;26;20483;-67
2024/04/09 21:15:58;;;;;;;1999.90;999.90;;;;;;;10.22;89.77;101640.44;11184022;26;20072;-67
2024/04/09 21:21:01;;;;;;;1999.90;999.90;;;;;;;10.27;91.57;101637.63;11214406;26;20013;-68
2024/04/09 21:26:04;;;;;;;1999.90;999.90;;;;;;;10.44;91.69;101647.41;11214844;26;19999;-67
2024/04/09 21:31:06;;;;;;;1999.90;999.90;;;;;;;10.12;92.57;101648.72;11183016;26;19999;-67
2024/04/09 21:36:09;;;;;;;1999.90;999.90;;;;;;;10.14;92.47;101658.22;11213751;26;20008;-67
2024/04/09 21:41:11;;;;;;;1999.90;999.90;;;;;;;10.10;92.69;101668.88;11091320;26;20045;-68
2024/04/09 21:46:14;;;;;;;1999.90;999.90;;;;;;;10.29;92.85;101674.19;11067601;26;20012;-67
2024/04/09 21:51:17;;;;;;;1999.90;999.90;;;;;;;10.16;93.43;101679.09;11065836;26;20339;-67